Time;durP1;ratioP1;P1;durP2;ratioP2;P2;SDS_P1;SDS_P2;PMS_P1;PMS_P2;Temp;Humidity;BMP_temperature;BMP_pressure;BME280_temperature;BME280_humidity;BME280_pressure;Samples;Min_cycle;Max_cycle;Signal;HPM_P1;HPM_P2
2023/08/25 00:01:24;;;;;;;2.95;1.80;;;24.40;48.20;;;;;;5116993;28;20102;-72
2023/08/25 00:03:49;;;;;;;2.00;1.80;;;24.40;48.20;;;;;;5117066;28;20027;-72
2023/08/25 00:06:15;;;;;;;2.63;2.03;;;24.40;48.10;;;;;;5117161;28;20024;-72
2023/08/25 00:08:41;;;;;;;2.15;1.90;;;24.40;48.10;;;;;;5117501;28;20034;-72
2023/08/25 00:11:07;;;;;;;2.80;1.90;;;24.50;48.20;;;;;;5116489;28;20032;-72
2023/08/25 00:13:35;;;;;;;1.98;1.67;;;24.40;48.10;;;;;;5117343;28;20040;-72
2023/08/25 00:16:03;;;;;;;1.70;1.60;;;24.50;48.10;;;;;;5116771;28;20027;-72
2023/08/25 00:18:28;;;;;;;2.58;1.73;;;24.50;48.00;;;;;;5115573;28;20053;-72
2023/08/25 00:20:54;;;;;;;2.17;1.80;;;24.50;47.90;;;;;;5115525;28;20079;-72
2023/08/25 00:23:19;;;;;;;3.00;1.70;;;24.60;47.90;;;;;;5114231;28;20465;-72
2023/08/25 00:25:45;;;;;;;2.33;1.98;;;24.50;47.70;;;;;;5115292;28;20028;-72
2023/08/25 00:28:11;;;;;;;2.13;1.92;;;24.50;47.80;;;;;;5116895;28;20019;-72
2023/08/25 00:30:36;;;;;;;2.22;1.80;;;24.50;47.80;;;;;;5116931;28;20381;-71
2023/08/25 00:33:02;;;;;;;1.85;1.75;;;24.60;47.80;;;;;;5116585;28;20036;-72
2023/08/25 00:35:28;;;;;;;2.78;1.80;;;24.50;47.70;;;;;;5115933;28;20106;-72
2023/08/25 00:37:53;;;;;;;1.80;1.70;;;24.50;47.70;;;;;;5116746;28;20099;-72
2023/08/25 00:40:19;;;;;;;1.65;1.50;;;24.50;47.70;;;;;;5116354;28;20062;-72
2023/08/25 00:42:44;;;;;;;2.30;2.00;;;24.50;47.70;;;;;;5115316;28;20027;-72
2023/08/25 00:45:10;;;;;;;2.45;1.83;;;24.50;47.70;;;;;;5116005;28;20453;-72
2023/08/25 00:47:36;;;;;;;2.00;1.80;;;24.50;47.70;;;;;;5116802;28;20024;-73
2023/08/25 00:50:03;;;;;;;2.13;1.92;;;24.50;47.70;;;;;;5116459;28;20097;-73
2023/08/25 00:52:29;;;;;;;1.60;1.50;;;24.50;47.70;;;;;;5116251;28;20019;-73
2023/08/25 00:54:56;;;;;;;2.78;2.10;;;24.50;47.70;;;;;;5116043;28;20031;-72
2023/08/25 00:57:23;;;;;;;2.55;1.80;;;24.40;47.60;;;;;;5116572;28;20024;-72
2023/08/25 00:59:50;;;;;;;2.22;2.03;;;24.40;47.70;;;;;;5115205;28;20023;-72
2023/08/25 01:02:16;;;;;;;2.17;1.90;;;24.40;47.80;;;;;;5112940;28;20055;-72
2023/08/25 01:04:41;;;;;;;2.08;1.80;;;24.30;47.80;;;;;;5114732;27;20519;-72
2023/08/25 01:07:07;;;;;;;4.07;2.60;;;24.30;47.80;;;;;;5115514;28;20031;-72
2023/08/25 01:09:34;;;;;;;4.10;2.70;;;24.30;47.90;;;;;;5116365;28;20023;-72
2023/08/25 01:12:09;;;;;;;4.22;2.35;;;24.20;47.90;;;;;;5115248;28;20035;-73
2023/08/25 01:15:04;;;;;;;3.00;2.50;;;24.20;48.00;;;;;;5114298;28;20168;-72
2023/08/25 01:17:53;;;;;;;3.03;2.30;;;24.20;48.10;;;;;;5090538;28;20086;-72
2023/08/25 01:20:22;;;;;;;3.97;2.65;;;24.10;48.20;;;;;;5095168;28;20044;-72
2023/08/25 01:23:08;;;;;;;3.42;2.80;;;24.10;48.20;;;;;;5094197;28;20028;-72
2023/08/25 01:25:34;;;;;;;3.28;2.53;;;24.00;48.30;;;;;;5094043;28;20465;-72
2023/08/25 01:28:03;;;;;;;3.58;2.65;;;23.90;48.20;;;;;;5101864;28;20039;-72
2023/08/25 01:30:33;;;;;;;3.50;2.78;;;23.90;48.30;;;;;;5112685;28;20038;-72
2023/08/25 01:32:59;;;;;;;3.00;2.50;;;23.80;48.40;;;;;;5115703;28;20109;-72
2023/08/25 01:36:13;;;;;;;2.65;2.40;;;23.80;48.50;;;;;;5115260;28;20027;-72
2023/08/25 01:38:58;;;;;;;3.45;2.83;;;23.70;48.80;;;;;;5109746;28;20027;-72
2023/08/25 01:41:45;;;;;;;3.45;2.33;;;23.80;48.80;;;;;;5099841;28;20035;-72
2023/08/25 01:44:14;;;;;;;3.92;2.42;;;23.80;48.90;;;;;;5113765;28;20049;-72
2023/08/25 01:46:43;;;;;;;4.07;2.28;;;23.80;48.80;;;;;;5115484;27;20037;-73
2023/08/25 01:49:10;;;;;;;2.50;2.30;;;23.80;48.90;;;;;;5114943;28;20465;-72
2023/08/25 01:51:37;;;;;;;3.47;2.60;;;23.70;48.90;;;;;;5114987;28;20153;-72
2023/08/25 01:54:03;;;;;;;3.03;2.55;;;23.70;49.00;;;;;;5114990;28;20084;-72
2023/08/25 01:56:29;;;;;;;3.10;2.60;;;23.70;49.20;;;;;;5115498;28;20100;-72
2023/08/25 01:58:54;;;;;;;2.97;2.40;;;23.60;49.20;;;;;;5113969;28;20106;-73
2023/08/25 02:01:20;;;;;;;4.70;2.70;;;23.60;49.20;;;;;;5114859;28;20028;-73
2023/08/25 02:03:46;;;;;;;3.28;2.70;;;23.60;49.30;;;;;;5114601;28;20039;-73
2023/08/25 02:06:11;;;;;;;2.92;2.40;;;23.50;49.40;;;;;;5114696;28;20541;-73
2023/08/25 02:08:37;;;;;;;3.05;2.70;;;23.50;49.50;;;;;;5114780;28;20343;-73
2023/08/25 02:11:04;;;;;;;3.70;2.75;;;23.50;49.70;;;;;;5114791;28;20042;-73
2023/08/25 02:13:30;;;;;;;3.67;2.60;;;23.50;49.70;;;;;;5114715;28;20459;-72
2023/08/25 02:15:55;;;;;;;3.25;2.50;;;23.50;49.80;;;;;;5112984;28;20031;-72
2023/08/25 02:18:21;;;;;;;4.72;2.85;;;23.50;49.90;;;;;;5114182;28;20427;-72
2023/08/25 02:20:47;;;;;;;3.47;2.88;;;23.50;49.90;;;;;;5113599;28;20474;-72
2023/08/25 02:23:12;;;;;;;3.90;2.78;;;23.50;49.90;;;;;;5114498;28;20031;-73
2023/08/25 02:25:38;;;;;;;3.90;2.78;;;23.50;50.00;;;;;;5114574;28;20028;-72
2023/08/25 02:28:04;;;;;;;3.72;2.80;;;23.50;50.10;;;;;;5114133;28;20102;-73
2023/08/25 02:30:30;;;;;;;3.72;3.05;;;23.50;50.10;;;;;;5113743;28;20028;-72
2023/08/25 02:32:56;;;;;;;3.60;2.90;;;23.50;50.20;;;;;;5114089;28;20073;-72
2023/08/25 02:35:22;;;;;;;5.65;3.40;;;23.50;50.30;;;;;;5114868;28;20027;-72
2023/08/25 02:37:59;;;;;;;4.72;2.70;;;23.50;50.40;;;;;;5113924;28;20020;-72
2023/08/25 02:40:27;;;;;;;3.65;2.88;;;23.40;50.40;;;;;;5114097;28;20381;-72
2023/08/25 02:42:54;;;;;;;4.28;3.17;;;23.40;50.40;;;;;;5114187;28;20028;-72
2023/08/25 02:45:21;;;;;;;4.40;3.10;;;23.40;50.50;;;;;;5113944;28;20020;-72
2023/08/25 02:47:47;;;;;;;3.97;2.85;;;23.30;50.40;;;;;;5114070;28;20048;-72
2023/08/25 02:50:13;;;;;;;4.50;3.00;;;23.30;50.50;;;;;;5113727;28;20106;-72
2023/08/25 02:52:39;;;;;;;4.40;3.10;;;23.30;50.60;;;;;;5113639;28;20038;-72
2023/08/25 02:55:05;;;;;;;6.20;3.25;;;23.30;50.70;;;;;;5113927;28;20035;-72
2023/08/25 02:57:31;;;;;;;4.15;3.10;;;23.30;50.70;;;;;;5113895;28;20026;-72
2023/08/25 02:59:56;;;;;;;4.85;3.20;;;23.20;50.70;;;;;;5113684;28;20027;-73
2023/08/25 03:02:22;;;;;;;4.22;3.20;;;23.20;50.70;;;;;;5114089;28;20020;-72
2023/08/25 03:04:48;;;;;;;4.43;3.13;;;23.20;50.80;;;;;;5113582;28;20393;-72
2023/08/25 03:07:13;;;;;;;4.20;3.00;;;23.20;50.90;;;;;;5113920;28;20043;-72
2023/08/25 03:09:39;;;;;;;3.95;2.78;;;23.20;50.90;;;;;;5112471;28;20419;-72
2023/08/25 03:12:05;;;;;;;3.70;2.80;;;23.10;50.90;;;;;;5112725;28;20073;-72
2023/08/25 03:14:30;;;;;;;5.78;2.90;;;23.10;50.90;;;;;;5113598;28;20536;-72
2023/08/25 03:16:56;;;;;;;3.97;3.10;;;23.10;51.00;;;;;;5113947;28;20125;-72
2023/08/25 03:19:22;;;;;;;5.70;3.47;;;23.00;51.00;;;;;;5113691;28;20027;-72
2023/08/25 03:21:47;;;;;;;3.85;2.85;;;23.00;51.00;;;;;;5113785;28;20055;-71
2023/08/25 03:24:13;;;;;;;4.15;2.90;;;22.90;51.00;;;;;;5113056;28;20040;-72
2023/08/25 03:26:38;;;;;;;4.10;2.95;;;22.90;51.20;;;;;;5113794;28;20077;-71
2023/08/25 03:29:04;;;;;;;5.15;2.90;;;22.90;51.30;;;;;;5112329;28;20055;-72
2023/08/25 03:31:30;;;;;;;3.55;2.90;;;22.90;51.30;;;;;;5114071;28;20484;-72
2023/08/25 03:33:55;;;;;;;6.35;4.20;;;22.90;51.30;;;;;;5113673;28;20059;-72
2023/08/25 03:36:21;;;;;;;6.88;4.05;;;22.90;51.40;;;;;;5113535;28;20452;-72
2023/08/25 03:38:46;;;;;;;6.93;3.78;;;22.90;51.40;;;;;;5113317;28;20026;-72
2023/08/25 03:41:12;;;;;;;5.97;3.38;;;22.90;51.40;;;;;;5112811;28;20031;-72
2023/08/25 03:43:38;;;;;;;4.97;3.50;;;23.00;51.40;;;;;;5111683;28;20127;-72
2023/08/25 03:46:04;;;;;;;4.72;3.30;;;22.90;51.30;;;;;;5113912;28;20031;-72
2023/08/25 03:48:29;;;;;;;4.38;3.17;;;23.00;51.40;;;;;;5113002;28;20043;-72
2023/08/25 03:50:55;;;;;;;5.03;3.58;;;23.00;51.40;;;;;;5113224;28;20028;-72
2023/08/25 03:53:21;;;;;;;4.75;3.20;;;23.00;51.40;;;;;;5115202;28;20042;-73
2023/08/25 03:55:46;;;;;;;4.88;3.15;;;23.10;51.50;;;;;;5117326;28;20023;-72
2023/08/25 03:58:13;;;;;;;5.78;3.83;;;23.10;51.50;;;;;;5116677;28;20036;-72
2023/08/25 04:00:39;;;;;;;5.72;3.53;;;23.20;51.50;;;;;;5117149;28;20048;-72
2023/08/25 04:03:06;;;;;;;6.15;3.65;;;23.20;51.30;;;;;;5116019;28;20102;-72
2023/08/25 04:05:33;;;;;;;6.03;3.42;;;23.20;51.30;;;;;;5117436;28;20023;-72
2023/08/25 04:07:58;;;;;;;6.05;3.42;;;23.20;51.40;;;;;;5117206;28;20032;-72
2023/08/25 04:10:25;;;;;;;5.03;3.63;;;23.20;51.40;;;;;;5115407;28;20080;-72
2023/08/25 04:12:50;;;;;;;6.07;4.20;;;23.20;51.30;;;;;;5116999;28;20511;-72
2023/08/25 04:15:18;;;;;;;5.10;3.63;;;23.10;51.30;;;;;;5116895;28;20032;-72
2023/08/25 04:17:43;;;;;;;8.75;3.90;;;23.10;51.20;;;;;;5116456;28;20047;-72
2023/08/25 04:20:10;;;;;;;5.80;3.40;;;23.10;51.30;;;;;;5115374;28;20450;-74
2023/08/25 04:22:35;;;;;;;4.25;3.10;;;23.10;51.40;;;;;;5116912;28;20519;-73
2023/08/25 04:25:01;;;;;;;4.75;3.45;;;23.10;51.40;;;;;;5115465;28;20059;-73
2023/08/25 04:27:27;;;;;;;4.95;3.38;;;23.10;51.40;;;;;;5116689;28;20054;-73
2023/08/25 04:29:52;;;;;;;4.82;3.38;;;23.10;51.40;;;;;;5116910;28;20119;-73
2023/08/25 04:32:18;;;;;;;5.60;3.40;;;23.20;51.40;;;;;;5115872;28;20035;-73
2023/08/25 04:34:44;;;;;;;4.57;3.17;;;23.30;51.40;;;;;;5115098;28;20441;-73
2023/08/25 04:37:10;;;;;;;4.85;2.92;;;23.30;51.40;;;;;;5116306;28;20059;-73
2023/08/25 04:39:35;;;;;;;4.13;3.05;;;23.40;51.40;;;;;;5115759;28;20044;-73
2023/08/25 04:42:01;;;;;;;3.88;3.00;;;23.30;51.30;;;;;;5115464;28;20034;-73
2023/08/25 04:44:26;;;;;;;6.28;3.50;;;23.40;51.30;;;;;;5111907;28;20039;-75
2023/08/25 04:46:52;;;;;;;4.35;3.08;;;23.40;51.40;;;;;;5114936;28;20039;-74
2023/08/25 04:49:18;;;;;;;6.15;3.58;;;23.50;51.40;;;;;;5115690;28;20024;-74
2023/08/25 04:51:44;;;;;;;6.65;3.90;;;23.40;51.20;;;;;;5116140;28;20068;-72
2023/08/25 04:54:09;;;;;;;4.13;3.13;;;23.40;51.30;;;;;;5114846;28;20385;-73
2023/08/25 04:56:35;;;;;;;4.47;3.15;;;23.40;51.30;;;;;;5116191;28;20031;-74
2023/08/25 04:59:00;;;;;;;4.38;3.10;;;23.40;51.40;;;;;;5114478;28;20024;-74
2023/08/25 05:01:26;;;;;;;4.13;2.97;;;23.50;51.50;;;;;;5113589;28;20382;-78
2023/08/25 05:03:52;;;;;;;6.30;2.90;;;23.50;51.40;;;;;;5113818;28;20040;-72
2023/08/25 05:06:17;;;;;;;3.88;2.97;;;23.50;51.40;;;;;;5115277;28;20022;-73
2023/08/25 05:08:44;;;;;;;4.78;2.90;;;23.60;51.30;;;;;;5114790;28;20028;-70
2023/08/25 05:11:10;;;;;;;6.32;2.80;;;23.70;51.30;;;;;;5115244;28;20071;-72
2023/08/25 05:13:35;;;;;;;5.35;2.80;;;23.70;51.20;;;;;;5115309;28;20051;-72
2023/08/25 05:16:01;;;;;;;4.85;2.80;;;23.80;51.20;;;;;;5113960;28;20035;-74
2023/08/25 05:18:27;;;;;;;3.75;2.80;;;23.80;51.20;;;;;;5113714;28;20038;-75
2023/08/25 05:21:00;;;;;;;4.22;2.67;;;23.90;51.20;;;;;;5114778;28;20047;-76
2023/08/25 05:23:25;;;;;;;4.18;2.83;;;24.00;51.20;;;;;;5114267;28;20040;-76
2023/08/25 05:25:51;;;;;;;4.40;2.88;;;24.10;51.10;;;;;;5113621;28;20096;-79
2023/08/25 05:28:17;;;;;;;5.53;2.90;;;24.10;51.00;;;;;;5115037;28;20035;-77
2023/08/25 05:30:46;;;;;;;3.90;2.70;;;24.10;51.60;;;;;;5115541;28;20035;-78
2023/08/25 05:33:12;;;;;;;4.13;2.65;;;24.20;50.90;;;;;;5113090;28;20032;-76
2023/08/25 05:35:37;;;;;;;4.85;2.70;;;24.20;50.90;;;;;;5114888;28;20054;-78
2023/08/25 05:38:03;;;;;;;3.67;2.70;;;24.20;50.90;;;;;;5114710;28;20027;-77
2023/08/25 05:40:29;;;;;;;3.95;2.63;;;24.20;50.90;;;;;;5113540;28;20028;-74
2023/08/25 05:42:55;;;;;;;3.70;2.70;;;24.20;50.90;;;;;;5115063;28;20022;-77
2023/08/25 05:45:20;;;;;;;4.20;2.78;;;24.10;51.00;;;;;;5114982;28;20034;-78
2023/08/25 05:47:46;;;;;;;4.88;2.90;;;24.10;51.20;;;;;;5114457;28;20046;-76
2023/08/25 05:50:11;;;;;;;3.53;2.65;;;24.10;51.30;;;;;;5125639;27;20466;-75
2023/08/25 05:52:37;;;;;;;5.53;2.65;;;24.10;51.40;;;;;;5135686;27;20367;-76
2023/08/25 05:55:03;;;;;;;3.20;2.50;;;24.20;51.50;;;;;;5113242;28;20035;-80
2023/08/25 05:57:29;;;;;;;3.92;2.72;;;24.20;51.50;;;;;;5115227;28;20024;-75
2023/08/25 05:59:54;;;;;;;6.25;2.63;;;24.20;51.60;;;;;;5112894;28;20488;-74
2023/08/25 06:02:20;;;;;;;3.30;2.45;;;24.20;51.60;;;;;;5116078;27;20026;-78
2023/08/25 06:04:46;;;;;;;3.33;2.30;;;24.20;51.60;;;;;;5151329;27;20046;-76
2023/08/25 06:07:11;;;;;;;10.43;9.13;;;24.30;51.70;;;;;;5141178;27;20023;-75
2023/08/25 06:09:37;;;;;;;3.10;2.47;;;24.30;51.70;;;;;;5113753;28;20032;-74
2023/08/25 06:12:03;;;;;;;4.38;2.88;;;24.40;52.10;;;;;;5114269;28;20385;-74
2023/08/25 06:14:30;;;;;;;3.65;2.72;;;24.40;52.00;;;;;;5114509;28;20496;-74
2023/08/25 06:17:00;;;;;;;4.13;2.38;;;24.50;52.10;;;;;;5113702;28;20041;-73
2023/08/25 06:19:26;;;;;;;3.00;2.25;;;24.50;52.10;;;;;;5112675;28;20031;-73
2023/08/25 06:21:51;;;;;;;2.35;2.15;;;24.60;52.10;;;;;;5114165;27;20268;-73
2023/08/25 06:24:17;;;;;;;2.63;2.30;;;24.70;52.00;;;;;;5113967;28;20043;-70
2023/08/25 06:26:43;;;;;;;3.50;2.13;;;24.80;52.00;;;;;;5114367;28;20051;-73
2023/08/25 06:29:09;;;;;;;2.47;2.08;;;24.80;51.90;;;;;;5114069;28;20458;-71
2023/08/25 06:31:34;;;;;;;3.25;2.10;;;25.00;51.80;;;;;;5113695;28;20055;-70
2023/08/25 06:34:03;;;;;;;3.05;2.20;;;25.00;51.70;;;;;;5113726;28;20102;-69
2023/08/25 06:36:30;;;;;;;2.30;2.08;;;25.00;51.60;;;;;;5095907;28;20068;-71
2023/08/25 06:38:56;;;;;;;3.70;2.25;;;25.10;51.60;;;;;;5114358;28;20024;-72
2023/08/25 06:41:22;;;;;;;2.97;1.90;;;25.10;51.40;;;;;;5113348;28;20081;-69
2023/08/25 06:43:48;;;;;;;2.20;1.90;;;25.20;51.10;;;;;;5114078;28;20035;-71
2023/08/25 06:46:13;;;;;;;2.05;1.85;;;25.20;51.10;;;;;;5112917;28;20023;-70
2023/08/25 06:48:39;;;;;;;1.85;1.60;;;25.20;50.90;;;;;;5113215;28;20068;-70
2023/08/25 06:51:05;;;;;;;6.28;4.13;;;25.20;50.80;;;;;;5111393;28;20024;-74
2023/08/25 06:53:31;;;;;;;4.05;1.70;;;25.30;50.80;;;;;;5115787;27;20092;-75
2023/08/25 06:55:57;;;;;;;2.13;1.83;;;25.30;50.60;;;;;;5112426;28;20038;-74
2023/08/25 06:58:23;;;;;;;1.90;1.67;;;25.40;50.60;;;;;;5113369;28;20027;-74
2023/08/25 07:00:50;;;;;;;1.75;1.65;;;25.40;50.50;;;;;;5113944;28;20016;-71
2023/08/25 07:03:16;;;;;;;1.75;1.58;;;25.40;50.40;;;;;;5112174;28;20035;-76
2023/08/25 07:05:42;;;;;;;1.83;1.52;;;25.50;50.40;;;;;;5113669;28;20024;-73
2023/08/25 07:08:07;;;;;;;1.88;1.42;;;25.50;50.40;;;;;;5113669;28;20457;-73
2023/08/25 07:10:34;;;;;;;2.70;1.65;;;25.50;50.40;;;;;;5113182;28;20027;-73
2023/08/25 07:13:00;;;;;;;1.73;1.48;;;25.60;50.30;;;;;;5112240;28;20428;-84
2023/08/25 07:15:26;;;;;;;2.15;1.40;;;25.60;50.30;;;;;;5112680;28;20027;-80
2023/08/25 07:17:52;;;;;;;2.03;1.48;;;25.70;50.20;;;;;;5113649;28;20031;-77
2023/08/25 07:20:18;;;;;;;1.60;1.30;;;25.70;50.10;;;;;;5113580;28;20401;-73
2023/08/25 07:22:43;;;;;;;3.67;1.60;;;25.80;50.10;;;;;;5113898;28;20377;-72
2023/08/25 07:25:09;;;;;;;1.33;1.20;;;25.80;50.00;;;;;;5113617;28;20086;-84
2023/08/25 07:27:35;;;;;;;1.70;1.33;;;25.80;50.00;;;;;;5112136;28;20471;-75
2023/08/25 07:30:01;;;;;;;1.60;1.35;;;25.80;49.90;;;;;;5117777;27;20023;-75
2023/08/25 07:32:26;;;;;;;3.00;1.38;;;25.90;49.90;;;;;;5116649;28;20373;-74
2023/08/25 07:34:52;;;;;;;11.05;9.35;;;25.90;49.80;;;;;;5115341;28;20035;-76
2023/08/25 07:37:18;;;;;;;2.45;1.48;;;25.90;49.70;;;;;;5113890;28;20030;-77
2023/08/25 07:39:50;;;;;;;1.67;1.33;;;25.90;49.50;;;;;;5115519;28;20032;-76
2023/08/25 07:42:16;;;;;;;1.40;1.30;;;25.80;49.40;;;;;;5116147;28;20020;-76
2023/08/25 07:44:42;;;;;;;1.63;1.25;;;25.90;49.50;;;;;;5116289;28;20046;-72
2023/08/25 07:47:07;;;;;;;1.67;1.48;;;25.90;49.40;;;;;;5116786;27;20027;-73
2023/08/25 07:49:33;;;;;;;5.70;4.20;;;25.90;49.20;;;;;;5115746;28;20466;-75
2023/08/25 07:51:59;;;;;;;4.82;3.05;;;25.90;49.20;;;;;;5116342;28;20027;-76
2023/08/25 07:54:27;;;;;;;1.45;1.35;;;25.90;49.10;;;;;;5116640;28;20024;-70
2023/08/25 07:56:53;;;;;;;1.63;1.33;;;25.90;49.20;;;;;;5117877;27;20042;-70
2023/08/25 07:59:19;;;;;;;2.25;1.70;;;25.90;49.30;;;;;;5114667;28;20066;-70
2023/08/25 08:01:45;;;;;;;2.83;1.80;;;25.90;49.40;;;;;;5139009;27;20051;-72
2023/08/25 08:04:11;;;;;;;2.78;1.50;;;26.00;49.40;;;;;;5116258;28;20055;-72
2023/08/25 08:06:37;;;;;;;1.50;1.40;;;26.00;49.40;;;;;;5137136;27;20031;-72
2023/08/25 08:09:06;;;;;;;1.75;1.40;;;26.00;49.30;;;;;;5116313;28;20051;-73
2023/08/25 08:11:35;;;;;;;2.13;1.20;;;26.00;49.30;;;;;;5116311;28;20031;-74
2023/08/25 08:14:00;;;;;;;1.58;1.30;;;26.10;49.20;;;;;;5111095;28;20489;-72
2023/08/25 08:16:26;;;;;;;1.40;1.30;;;26.10;49.00;;;;;;5115755;28;20050;-73
2023/08/25 08:18:52;;;;;;;1.80;1.45;;;26.10;48.90;;;;;;5115591;28;20031;-72
2023/08/25 08:21:18;;;;;;;1.52;1.30;;;26.10;48.90;;;;;;5113640;28;20035;-72
2023/08/25 08:23:44;;;;;;;2.78;1.50;;;26.10;48.80;;;;;;5114934;28;20027;-73
2023/08/25 08:26:10;;;;;;;3.00;1.38;;;26.10;48.60;;;;;;5116445;28;20088;-73
2023/08/25 08:28:36;;;;;;;2.28;1.35;;;26.10;48.30;;;;;;5116141;28;20473;-72
2023/08/25 08:31:05;;;;;;;1.02;1.00;;;26.20;48.40;;;;;;5113005;28;20023;-72
2023/08/25 08:33:31;;;;;;;1.75;1.20;;;26.20;48.50;;;;;;5140038;27;20024;-72
2023/08/25 08:35:58;;;;;;;2.08;1.27;;;26.30;48.50;;;;;;5115402;28;20023;-73
2023/08/25 08:38:23;;;;;;;1.63;1.20;;;26.30;48.40;;;;;;5138063;27;20114;-72
2023/08/25 08:40:50;;;;;;;2.33;1.23;;;26.30;48.30;;;;;;5115710;28;20099;-72
2023/08/25 08:43:18;;;;;;;1.80;1.20;;;26.30;48.10;;;;;;5138879;27;20373;-73
2023/08/25 08:45:45;;;;;;;1.30;1.20;;;26.40;48.10;;;;;;5112953;28;20043;-72
2023/08/25 08:48:13;;;;;;;1.70;1.60;;;26.50;48.00;;;;;;5115922;28;20026;-71
2023/08/25 08:50:42;;;;;;;2.10;1.40;;;26.50;47.90;;;;;;5114806;28;20043;-72
2023/08/25 08:53:08;;;;;;;1.10;1.10;;;26.50;47.90;;;;;;5115166;28;20036;-71
2023/08/25 08:55:35;;;;;;;2.85;1.55;;;26.60;47.80;;;;;;5139433;27;20030;-73
2023/08/25 08:58:00;;;;;;;2.22;1.50;;;26.60;47.70;;;;;;5115547;28;20454;-72
2023/08/25 09:00:27;;;;;;;2.22;1.52;;;26.60;47.60;;;;;;5115087;28;20035;-72
2023/08/25 09:02:55;;;;;;;1.85;1.50;;;26.70;47.60;;;;;;5111697;28;20020;-72
2023/08/25 09:05:26;;;;;;;3.00;1.50;;;26.70;47.30;;;;;;5113058;28;20043;-73
2023/08/25 09:07:57;;;;;;;1.90;1.17;;;26.60;47.20;;;;;;5111866;28;20128;-73
2023/08/25 09:10:26;;;;;;;2.40;1.35;;;26.70;47.40;;;;;;5113609;28;20045;-73
2023/08/25 09:12:52;;;;;;;1.52;1.42;;;26.70;47.40;;;;;;5103823;28;20078;-72
2023/08/25 09:15:32;;;;;;;1.77;1.42;;;26.70;47.00;;;;;;5112433;28;20496;-72
2023/08/25 09:18:03;;;;;;;1.58;1.40;;;26.70;47.00;;;;;;5109821;28;20023;-69
2023/08/25 09:20:30;;;;;;;1.75;1.30;;;26.70;46.90;;;;;;5112747;28;20152;-73
2023/08/25 09:22:56;;;;;;;1.30;1.20;;;26.80;47.00;;;;;;5112813;28;20024;-72
2023/08/25 09:25:26;;;;;;;1.52;1.40;;;26.80;47.00;;;;;;5111624;28;20130;-72
2023/08/25 09:28:00;;;;;;;1.50;1.40;;;26.80;46.70;;;;;;5113759;28;20593;-71
2023/08/25 09:30:42;;;;;;;2.63;1.60;;;26.80;46.70;;;;;;5137266;27;20028;-73
2023/08/25 09:33:10;;;;;;;1.70;1.30;;;26.90;46.50;;;;;;5113907;27;20110;-74
2023/08/25 09:35:36;;;;;;;1.60;1.50;;;26.80;46.50;;;;;;5114545;28;20015;-72
2023/08/25 09:38:02;;;;;;;1.70;1.40;;;26.80;46.60;;;;;;5114720;28;20034;-71
2023/08/25 09:40:29;;;;;;;3.75;1.50;;;26.90;46.60;;;;;;5114821;28;20032;-71
2023/08/25 09:42:59;;;;;;;1.75;1.55;;;26.90;46.60;;;;;;5114845;28;20029;-71
2023/08/25 09:45:29;;;;;;;1.98;1.60;;;26.90;46.50;;;;;;5138931;27;20114;-71
2023/08/25 09:48:09;;;;;;;1.73;1.50;;;26.90;46.50;;;;;;5112134;28;20401;-71
2023/08/25 09:50:37;;;;;;;1.83;1.70;;;26.90;46.50;;;;;;5111204;28;20471;-70
2023/08/25 09:53:05;;;;;;;1.50;1.40;;;26.90;46.30;;;;;;5114641;28;20027;-70
2023/08/25 09:55:33;;;;;;;2.25;1.83;;;26.90;46.40;;;;;;5112872;28;20023;-70
2023/08/25 09:57:59;;;;;;;1.60;1.50;;;26.90;46.60;;;;;;5114535;28;20023;-72
2023/08/25 10:00:26;;;;;;;2.63;1.60;;;26.90;47.20;;;;;;5114341;28;20020;-70
2023/08/25 10:02:53;;;;;;;2.22;1.48;;;26.90;46.70;;;;;;5114175;28;20153;-72
2023/08/25 10:05:20;;;;;;;1.98;1.60;;;27.00;47.00;;;;;;5114176;28;20026;-72
2023/08/25 10:07:47;;;;;;;1.98;1.60;;;27.00;47.00;;;;;;5113739;28;20374;-69
2023/08/25 10:10:13;;;;;;;2.58;2.00;;;27.10;47.20;;;;;;5138616;27;20039;-70
2023/08/25 10:12:41;;;;;;;1.65;1.55;;;27.10;47.20;;;;;;5113962;28;20381;-73
2023/08/25 10:15:09;;;;;;;2.28;1.75;;;27.10;47.30;;;;;;5114047;28;20030;-72
2023/08/25 10:17:36;;;;;;;1.52;1.42;;;27.00;47.30;;;;;;5113811;28;20225;-72
2023/08/25 10:20:04;;;;;;;2.40;1.70;;;27.00;47.30;;;;;;5111905;28;20042;-69
2023/08/25 10:22:33;;;;;;;2.47;1.70;;;27.00;47.30;;;;;;5135952;27;20128;-71
2023/08/25 10:25:03;;;;;;;2.60;1.48;;;27.10;47.30;;;;;;5113467;28;20032;-71
2023/08/25 10:27:32;;;;;;;2.08;1.50;;;27.10;47.30;;;;;;5112218;28;20027;-74
2023/08/25 10:29:59;;;;;;;2.03;1.50;;;27.20;47.30;;;;;;5113779;28;20469;-71
2023/08/25 10:32:53;;;;;;;1.67;1.52;;;27.20;47.30;;;;;;5112480;28;20457;-70
2023/08/25 10:35:46;;;;;;;3.00;1.48;;;27.20;47.40;;;;;;5106763;28;20020;-72
2023/08/25 10:38:18;;;;;;;2.10;1.80;;;27.20;47.40;;;;;;5111684;28;20099;-69
2023/08/25 10:40:57;;;;;;;1.60;1.50;;;27.20;47.40;;;;;;5113028;28;20042;-73
2023/08/25 10:43:33;;;;;;;1.30;1.20;;;27.30;47.40;;;;;;5112845;28;20096;-70
2023/08/25 10:46:08;;;;;;;2.38;1.60;;;27.30;47.30;;;;;;5098566;28;20488;-70
2023/08/25 10:48:34;;;;;;;2.35;1.40;;;27.40;47.20;;;;;;5111983;28;20020;-72
2023/08/25 10:51:17;;;;;;;1.77;1.40;;;27.50;47.10;;;;;;5113169;28;20054;-71
2023/08/25 10:53:49;;;;;;;1.52;1.40;;;27.50;47.00;;;;;;5113091;28;20517;-70
2023/08/25 10:56:17;;;;;;;2.17;1.50;;;27.50;47.00;;;;;;5111570;28;20055;-69
2023/08/25 10:59:02;;;;;;;2.00;1.50;;;27.60;47.10;;;;;;5112160;28;20058;-71
2023/08/25 11:01:37;;;;;;;1.60;1.50;;;27.60;47.00;;;;;;5112235;28;20065;-70
2023/08/25 11:04:08;;;;;;;1.83;1.58;;;27.60;46.90;;;;;;5113027;28;20039;-72
2023/08/25 11:06:44;;;;;;;3.03;1.67;;;27.70;47.00;;;;;;5113223;28;20059;-77
2023/08/25 11:09:30;;;;;;;2.63;1.45;;;27.60;47.40;;;;;;5109991;28;20032;-73
2023/08/25 11:11:58;;;;;;;1.23;1.13;;;27.60;46.80;;;;;;5112918;28;20031;-71
2023/08/25 11:14:31;;;;;;;1.38;1.27;;;27.60;46.90;;;;;;5109671;28;20023;-71
2023/08/25 11:16:57;;;;;;;1.73;1.40;;;27.60;46.80;;;;;;5112772;28;20465;-74
2023/08/25 11:19:26;;;;;;;1.20;1.10;;;27.70;46.80;;;;;;5130805;27;20070;-74
2023/08/25 11:22:00;;;;;;;2.42;1.20;;;27.80;46.70;;;;;;5112043;28;20092;-74
2023/08/25 11:24:25;;;;;;;3.28;1.40;;;27.80;46.50;;;;;;5150772;27;20035;-74
2023/08/25 11:26:51;;;;;;;1.10;1.00;;;27.90;46.50;;;;;;5116800;28;20424;-74
2023/08/25 11:29:17;;;;;;;2.08;1.20;;;27.90;46.40;;;;;;5113501;28;20470;-74
2023/08/25 11:31:46;;;;;;;1.00;1.00;;;28.00;46.40;;;;;;5112517;28;20024;-75
2023/08/25 11:34:12;;;;;;;1.25;1.15;;;28.10;46.50;;;;;;5112891;28;20490;-76
2023/08/25 11:36:38;;;;;;;1.83;1.15;;;28.10;46.50;;;;;;5112955;28;20019;-75
2023/08/25 11:39:03;;;;;;;2.00;1.35;;;28.10;46.60;;;;;;5115153;28;20396;-72
2023/08/25 11:41:29;;;;;;;2.67;1.48;;;28.10;46.80;;;;;;5112625;28;20015;-76
2023/08/25 11:43:57;;;;;;;1.33;1.20;;;28.10;46.90;;;;;;5113299;28;20044;-74
2023/08/25 11:46:23;;;;;;;1.40;1.10;;;28.10;46.90;;;;;;5114070;28;20484;-72
2023/08/25 11:48:50;;;;;;;1.92;1.40;;;28.10;46.90;;;;;;5120457;28;20027;-77
2023/08/25 11:51:17;;;;;;;1.70;1.60;;;28.10;47.00;;;;;;5115190;27;20027;-74
2023/08/25 11:53:44;;;;;;;1.38;1.20;;;28.10;46.80;;;;;;5118465;28;20035;-70
2023/08/25 11:56:16;;;;;;;3.13;1.52;;;28.10;46.80;;;;;;5113253;28;20458;-71
2023/08/25 11:58:45;;;;;;;1.70;1.60;;;28.10;47.00;;;;;;5113417;28;20460;-72
2023/08/25 12:01:12;;;;;;;1.30;1.20;;;28.20;47.10;;;;;;5113608;28;20019;-76
2023/08/25 12:03:39;;;;;;;1.65;1.55;;;28.10;47.20;;;;;;5117276;28;20027;-72
2023/08/25 12:06:09;;;;;;;1.40;1.30;;;28.10;47.30;;;;;;5134622;27;20042;-74
2023/08/25 12:08:36;;;;;;;1.67;1.58;;;28.10;47.40;;;;;;5113342;28;20023;-73
2023/08/25 12:11:04;;;;;;;1.30;1.20;;;28.10;47.40;;;;;;5095094;28;20074;-76
2023/08/25 12:13:32;;;;;;;4.32;1.38;;;28.20;47.50;;;;;;5113291;28;20043;-74
2023/08/25 12:15:58;;;;;;;1.58;1.48;;;28.20;47.50;;;;;;5116560;28;20020;-74
2023/08/25 12:18:33;;;;;;;1.40;1.30;;;28.20;47.40;;;;;;5115338;28;20020;-72
2023/08/25 12:20:59;;;;;;;1.50;1.40;;;28.30;47.50;;;;;;5116976;28;20481;-72
2023/08/25 12:23:25;;;;;;;1.02;1.02;;;28.30;47.40;;;;;;5116538;28;20034;-71
2023/08/25 12:25:51;;;;;;;1.83;1.45;;;28.30;47.40;;;;;;5116750;27;20054;-73
2023/08/25 12:28:17;;;;;;;1.50;1.40;;;28.40;47.40;;;;;;5116650;28;20020;-73
2023/08/25 12:30:42;;;;;;;1.40;1.30;;;28.50;47.30;;;;;;5114510;28;20027;-75
2023/08/25 12:33:08;;;;;;;1.42;1.33;;;28.60;47.30;;;;;;5115720;28;20020;-74
2023/08/25 12:35:34;;;;;;;2.13;1.42;;;28.60;47.10;;;;;;5116211;28;20026;-74
2023/08/25 12:38:00;;;;;;;2.10;1.90;;;28.70;47.20;;;;;;5116113;28;20094;-71
2023/08/25 12:40:26;;;;;;;2.00;1.80;;;28.60;46.90;;;;;;5114735;28;20027;-73
2023/08/25 12:42:53;;;;;;;2.08;1.70;;;28.60;47.00;;;;;;5140285;27;20366;-72
2023/08/25 12:45:23;;;;;;;1.70;1.60;;;28.50;47.00;;;;;;5115634;28;20032;-72
2023/08/25 12:47:49;;;;;;;2.55;1.33;;;28.50;47.00;;;;;;5097999;28;20080;-72
2023/08/25 12:50:15;;;;;;;6.75;1.65;;;28.60;47.00;;;;;;5116650;28;20106;-71